Time;durP1;ratioP1;P1;durP2;ratioP2;P2;SDS_P1;SDS_P2;PMS_P1;PMS_P2;Temp;Humidity;BMP_temperature;BMP_pressure;BME280_temperature;BME280_humidity;BME280_pressure;Samples;Min_cycle;Max_cycle;Signal;HPM_P1;HPM_P2
2023/11/20 00:01:52;;;;;;;31.50;4.07;;;;;;;7.24;100.00;97229.59;5039193;28;20552;-81
2023/11/20 00:04:18;;;;;;;11.52;2.60;;;;;;;7.22;100.00;97226.38;5042339;28;20461;-83
2023/11/20 00:06:44;;;;;;;12.25;2.75;;;;;;;7.12;100.00;97237.53;5042818;28;20399;-83
2023/11/20 00:09:10;;;;;;;30.90;4.28;;;;;;;6.96;100.00;97239.03;5043204;28;20423;-80
2023/11/20 00:11:36;;;;;;;18.88;2.90;;;;;;;6.96;100.00;97246.13;5042586;28;20399;-81
2023/11/20 00:14:03;;;;;;;9.40;2.38;;;;;;;6.87;100.00;97247.50;5042990;28;20394;-80
2023/11/20 00:16:29;;;;;;;10.70;2.63;;;;;;;6.77;100.00;97242.81;5042540;28;20441;-81
2023/11/20 00:18:57;;;;;;;17.13;3.25;;;;;;;6.70;100.00;97251.84;5043953;28;20441;-81
2023/11/20 00:21:23;;;;;;;8.38;2.45;;;;;;;6.62;100.00;97237.22;5042048;28;20419;-82
2023/11/20 00:23:50;;;;;;;9.45;2.88;;;;;;;6.59;100.00;97237.69;5042510;28;20391;-81
2023/11/20 00:26:16;;;;;;;18.65;2.95;;;;;;;6.53;100.00;97242.03;5042418;28;20401;-81
2023/11/20 00:28:43;;;;;;;28.52;3.85;;;;;;;6.45;100.00;97229.25;5042742;28;20399;-82
2023/11/20 00:31:13;;;;;;;11.32;2.92;;;;;;;6.43;100.00;97246.25;5042088;28;20396;-81
2023/11/20 00:33:39;;;;;;;25.73;4.28;;;;;;;6.37;100.00;97250.59;5041864;28;20407;-81
2023/11/20 00:36:08;;;;;;;24.15;3.63;;;;;;;6.38;100.00;97251.41;5040058;28;20421;-81
2023/11/20 00:38:34;;;;;;;16.23;3.03;;;;;;;6.45;100.00;97266.06;5039713;28;20454;-81
2023/11/20 00:41:00;;;;;;;14.75;3.40;;;;;;;6.49;100.00;97264.56;5040977;28;20429;-83
2023/11/20 00:43:26;;;;;;;13.70;2.93;;;;;;;6.53;100.00;97262.28;5041007;28;20449;-80
2023/11/20 00:45:52;;;;;;;20.05;3.75;;;;;;;6.52;100.00;97258.06;5039211;28;20407;-81
2023/11/20 00:48:19;;;;;;;10.87;2.97;;;;;;;6.53;100.00;97268.34;5039987;28;20399;-80
2023/11/20 00:50:45;;;;;;;7.65;2.50;;;;;;;6.49;100.00;97258.50;5040308;28;20466;-82
2023/11/20 00:53:12;;;;;;;11.07;2.57;;;;;;;6.45;100.00;97260.78;5041047;28;20434;-83
2023/11/20 00:55:39;;;;;;;19.15;3.67;;;;;;;6.38;100.00;97265.34;5044487;28;20395;-83
2023/11/20 00:58:05;;;;;;;15.25;3.05;;;;;;;6.35;100.00;97255.28;5040842;28;20446;-82
2023/11/20 01:00:32;;;;;;;10.45;2.85;;;;;;;6.35;100.00;97265.81;5039232;28;20434;-84
2023/11/20 01:02:59;;;;;;;14.13;2.58;;;;;;;6.36;100.00;97262.16;5041331;28;20876;-82
2023/11/20 01:05:25;;;;;;;6.70;2.80;;;;;;;6.35;100.00;97273.69;5045618;28;20407;-82
2023/11/20 01:07:51;;;;;;;19.80;3.30;;;;;;;6.31;100.00;97272.56;5038847;28;20960;-82
2023/11/20 01:10:19;;;;;;;15.80;2.97;;;;;;;6.28;100.00;97253.78;5042739;28;20402;-81
2023/11/20 01:12:45;;;;;;;11.25;2.67;;;;;;;6.26;100.00;97258.47;5038134;28;20422;-82
2023/11/20 01:15:11;;;;;;;8.05;2.50;;;;;;;6.21;100.00;97259.16;5039794;28;20449;-83
2023/11/20 01:17:38;;;;;;;7.22;2.40;;;;;;;6.15;100.00;97263.50;5039103;28;20395;-83
2023/11/20 01:20:06;;;;;;;14.23;2.53;;;;;;;6.11;100.00;97261.53;5039383;28;20403;-84
2023/11/20 01:22:32;;;;;;;10.90;3.13;;;;;;;6.07;100.00;97258.56;5038887;28;20806;-84
2023/11/20 01:24:58;;;;;;;18.65;3.65;;;;;;;6.03;100.00;97261.84;5039560;28;20910;-84
2023/11/20 01:27:26;;;;;;;12.32;2.85;;;;;;;5.98;100.00;97270.41;5040546;28;20406;-84
2023/11/20 01:29:53;;;;;;;7.57;2.50;;;;;;;5.97;100.00;97260.94;5040222;28;20453;-80
2023/11/20 01:32:19;;;;;;;8.30;2.47;;;;;;;6.00;100.00;97257.06;5039468;28;20403;-83
2023/11/20 01:34:45;;;;;;;11.23;3.10;;;;;;;6.02;100.00;97249.72;5039333;28;20408;-80
2023/11/20 01:37:12;;;;;;;9.63;2.70;;;;;;;6.07;100.00;97258.56;5040230;28;20486;-82
2023/11/20 01:39:38;;;;;;;8.02;2.72;;;;;;;6.11;100.00;97262.31;5042706;28;20399;-83
2023/11/20 01:42:05;;;;;;;5.22;2.50;;;;;;;6.18;100.00;97272.72;5041163;28;20424;-83
2023/11/20 01:44:33;;;;;;;5.97;2.90;;;;;;;6.24;100.00;97269.19;5038757;28;20414;-83
2023/11/20 01:47:00;;;;;;;10.25;2.78;;;;;;;6.29;100.00;97268.53;5038775;28;20404;-82
2023/11/20 01:49:30;;;;;;;9.20;2.95;;;;;;;6.35;100.00;97265.00;5039920;28;20421;-82
2023/11/20 01:51:57;;;;;;;6.72;2.30;;;;;;;6.40;100.00;97252.75;5041410;28;20395;-81
2023/11/20 01:54:24;;;;;;;7.47;2.63;;;;;;;6.47;100.00;97255.28;5043732;28;20930;-82
2023/11/20 01:56:50;;;;;;;9.65;3.05;;;;;;;6.52;100.00;97248.34;5038544;28;20402;-83
2023/11/20 01:59:18;;;;;;;7.55;2.25;;;;;;;6.56;100.00;97253.91;5040289;28;20435;-83
2023/11/20 02:01:45;;;;;;;10.10;2.47;;;;;;;6.58;100.00;97250.03;5038771;28;20457;-83
2023/11/20 02:04:13;;;;;;;6.97;2.55;;;;;;;6.63;100.00;97249.34;5037129;28;20466;-82
2023/11/20 02:06:40;;;;;;;18.58;2.80;;;;;;;6.66;100.00;97240.22;5037587;28;20427;-83
2023/11/20 02:09:06;;;;;;;7.40;2.53;;;;;;;6.71;100.00;97241.13;5037254;28;20403;-82
2023/11/20 02:11:32;;;;;;;4.05;1.92;;;;;;;6.73;100.00;97238.25;5036989;28;20403;-84
2023/11/20 02:13:59;;;;;;;6.03;2.10;;;;;;;6.76;100.00;97248.34;5036953;28;20407;-83
2023/11/20 02:16:25;;;;;;;2.95;1.80;;;;;;;6.78;100.00;97238.34;5036116;28;20760;-83
2023/11/20 02:18:52;;;;;;;4.53;2.03;;;;;;;6.79;100.00;97242.59;5037659;28;20460;-83
2023/11/20 02:21:19;;;;;;;4.55;1.90;;;;;;;6.78;100.00;97239.16;5036660;28;20480;-83
2023/11/20 02:23:45;;;;;;;4.28;2.10;;;;;;;6.78;100.00;97238.34;5037512;28;20414;-83
2023/11/20 02:26:34;;;;;;;6.18;2.08;;;;;;;6.78;100.00;97235.72;5037103;28;20415;-83
2023/11/20 02:29:20;;;;;;;5.10;2.00;;;;;;;6.80;100.00;97231.84;5035157;28;20402;-82
2023/11/20 02:31:47;;;;;;;8.50;2.30;;;;;;;6.82;100.00;97232.44;5037445;28;20390;-82
2023/11/20 02:34:14;;;;;;;5.10;2.15;;;;;;;6.85;100.00;97233.78;5036308;28;20891;-82
2023/11/20 02:36:40;;;;;;;3.78;1.90;;;;;;;6.87;100.00;97231.72;5036500;28;20403;-83
2023/11/20 02:39:06;;;;;;;13.18;2.65;;;;;;;6.89;100.00;97232.31;5036338;28;20403;-81
2023/11/20 02:41:32;;;;;;;11.27;2.58;;;;;;;6.89;100.00;97227.03;5036651;28;20415;-81
2023/11/20 02:43:59;;;;;;;11.25;2.72;;;;;;;6.89;100.00;97227.03;5036250;28;20957;-83
2023/11/20 02:46:25;;;;;;;6.10;2.00;;;;;;;6.89;100.00;97224.41;5037122;28;20514;-84
2023/11/20 02:48:52;;;;;;;5.25;2.10;;;;;;;6.89;100.00;97227.84;5036691;28;20415;-80
2023/11/20 02:51:18;;;;;;;4.70;1.90;;;;;;;6.91;100.00;97230.25;5036763;28;20399;-83
2023/11/20 02:53:46;;;;;;;7.70;2.30;;;;;;;6.90;100.00;97226.00;5035923;28;21240;-80
2023/11/20 02:56:12;;;;;;;6.25;2.15;;;;;;;6.92;100.00;97229.19;5037219;28;20434;-84
2023/11/20 02:58:38;;;;;;;8.43;2.63;;;;;;;6.94;100.00;97227.13;5036983;28;20403;-82
2023/11/20 03:01:07;;;;;;;15.82;2.63;;;;;;;6.95;100.00;97228.75;5037532;28;20425;-83
2023/11/20 03:03:33;;;;;;;7.88;2.60;;;;;;;6.96;100.00;97218.00;5036405;28;20463;-82
2023/11/20 03:06:01;;;;;;;6.15;2.28;;;;;;;6.98;100.00;97213.31;5038040;28;20422;-83
2023/11/20 03:08:27;;;;;;;7.85;2.40;;;;;;;6.98;100.00;97215.94;5037255;28;20407;-83
2023/11/20 03:10:53;;;;;;;7.63;2.38;;;;;;;6.99;100.00;97217.50;5036896;28;20416;-81
2023/11/20 03:13:23;;;;;;;4.55;2.10;;;;;;;7.02;100.00;97210.19;5037420;28;20414;-80
2023/11/20 03:15:50;;;;;;;9.00;2.40;;;;;;;7.04;100.00;97205.50;5037060;28;20426;-81
2023/11/20 03:18:16;;;;;;;6.93;2.25;;;;;;;7.06;100.00;97208.72;5037415;28;20402;-81
2023/11/20 03:20:42;;;;;;;7.10;2.40;;;;;;;7.09;100.00;97202.97;5037950;28;20423;-82
2023/11/20 03:23:13;;;;;;;8.02;2.55;;;;;;;7.10;100.00;97197.47;5037626;28;20399;-82
2023/11/20 03:25:40;;;;;;;13.27;2.60;;;;;;;7.15;100.00;97208.09;5040409;28;20470;-83
2023/11/20 03:28:06;;;;;;;16.60;3.00;;;;;;;7.16;100.00;97203.63;5038746;28;20408;-81
2023/11/20 03:30:32;;;;;;;15.60;3.10;;;;;;;7.18;100.00;97199.75;5036990;28;20808;-82
2023/11/20 03:32:58;;;;;;;15.32;3.25;;;;;;;7.19;100.00;97196.06;5033828;28;20403;-82
2023/11/20 03:35:24;;;;;;;9.85;2.83;;;;;;;7.25;100.00;97200.41;5036239;28;20704;-81
2023/11/20 03:37:51;;;;;;;15.63;3.30;;;;;;;7.31;100.00;97196.03;5040009;28;20399;-82
2023/11/20 03:40:18;;;;;;;28.70;4.90;;;;;;;7.34;100.00;97192.94;5040803;28;20431;-83
2023/11/20 03:42:46;;;;;;;16.02;3.38;;;;;;;7.46;100.00;97183.13;5040306;28;20485;-82
2023/11/20 03:45:12;;;;;;;11.57;3.00;;;;;;;7.52;100.00;97182.19;5040823;28;20430;-81
2023/11/20 03:47:39;;;;;;;14.32;3.42;;;;;;;7.56;100.00;97179.91;5040081;28;20751;-81
2023/11/20 03:50:06;;;;;;;8.52;2.65;;;;;;;7.60;100.00;97179.19;5039721;28;20775;-81
2023/11/20 03:52:32;;;;;;;4.30;2.22;;;;;;;7.61;100.00;97172.88;5039881;28;20395;-82
2023/11/20 03:54:59;;;;;;;5.00;2.10;;;;;;;7.63;100.00;97177.91;5039459;28;20444;-82
2023/11/20 03:57:26;;;;;;;8.83;2.67;;;;;;;7.61;100.00;97175.50;5038976;28;20402;-83
2023/11/20 03:59:52;;;;;;;17.35;2.90;;;;;;;7.65;100.00;97176.66;5039236;28;20403;-82
2023/11/20 04:02:18;;;;;;;18.02;3.00;;;;;;;7.66;100.00;97169.56;5038867;28;20419;-81
2023/11/20 04:04:45;;;;;;;11.90;2.40;;;;;;;7.70;100.00;97166.19;5039434;28;20399;-81
2023/11/20 04:07:11;;;;;;;16.63;3.15;;;;;;;7.71;100.00;97167.00;5039653;28;20960;-83
2023/11/20 04:09:37;;;;;;;23.70;3.25;;;;;;;7.71;100.00;97173.06;5038885;28;20437;-82
2023/11/20 04:12:04;;;;;;;23.83;2.97;;;;;;;7.74;100.00;97166.53;5039560;28;20399;-82
2023/11/20 04:14:32;;;;;;;11.73;2.70;;;;;;;7.77;100.00;97171.31;5039594;28;20810;-82
2023/11/20 04:16:58;;;;;;;7.00;1.98;;;;;;;7.76;100.00;97175.78;5039304;28;20406;-81
2023/11/20 04:19:24;;;;;;;18.73;2.67;;;;;;;7.74;100.00;97169.16;5038143;28;20490;-81
2023/11/20 04:21:52;;;;;;;10.05;1.90;;;;;;;7.74;100.00;97169.94;5039526;28;20415;-81
2023/11/20 04:24:18;;;;;;;5.60;1.73;;;;;;;7.70;100.00;97166.19;5044587;28;20403;-82
2023/11/20 04:26:44;;;;;;;9.35;1.98;;;;;;;7.62;100.00;97171.84;5039626;28;20429;-83
2023/11/20 04:29:10;;;;;;;12.43;2.17;;;;;;;7.55;100.00;97170.41;5039242;28;20407;-81
2023/11/20 04:31:38;;;;;;;9.68;2.00;;;;;;;7.51;100.00;97153.47;5039361;28;20414;-82
2023/11/20 04:34:05;;;;;;;8.13;1.90;;;;;;;7.49;100.00;97156.34;5040689;28;20418;-81
2023/11/20 04:36:31;;;;;;;19.55;2.50;;;;;;;7.48;100.00;97152.09;5042998;28;20872;-81
2023/11/20 04:38:57;;;;;;;28.02;3.42;;;;;;;7.49;100.00;97148.44;5044984;28;20791;-83
2023/11/20 04:41:23;;;;;;;24.67;3.03;;;;;;;7.54;100.00;97156.44;5045224;28;20927;-83
2023/11/20 04:43:50;;;;;;;26.92;2.85;;;;;;;7.60;100.00;97152.03;5043387;28;20396;-83
2023/11/20 04:46:16;;;;;;;14.57;2.70;;;;;;;7.61;100.00;97146.53;5040056;28;20399;-82
2023/11/20 04:48:44;;;;;;;14.00;2.80;;;;;;;7.68;100.00;97143.75;5039398;28;20392;-83
2023/11/20 04:51:17;;;;;;;10.13;2.58;;;;;;;7.70;100.00;97145.13;5037460;28;20407;-83
2023/11/20 04:53:44;;;;;;;14.57;2.33;;;;;;;7.72;100.00;97143.06;5045163;28;20399;-82
2023/11/20 04:56:11;;;;;;;12.77;2.60;;;;;;;7.76;100.00;97138.09;5042068;28;20406;-81
2023/11/20 04:58:37;;;;;;;19.05;2.40;;;;;;;7.80;100.00;97143.69;5042622;28;20391;-81
2023/11/20 05:01:06;;;;;;;9.45;2.03;;;;;;;7.79;100.00;97142.88;5042098;28;20498;-83
2023/11/20 05:03:32;;;;;;;20.38;2.55;;;;;;;7.77;100.00;97132.59;5041455;28;20410;-82
2023/11/20 05:06:00;;;;;;;14.40;2.53;;;;;;;7.70;100.00;97131.94;5041828;28;20446;-83
2023/11/20 05:08:27;;;;;;;18.55;2.35;;;;;;;7.73;100.00;97131.47;5040547;28;20399;-79
2023/11/20 05:10:53;;;;;;;26.63;3.42;;;;;;;7.75;100.00;97128.59;5038465;28;20444;-81
2023/11/20 05:13:19;;;;;;;22.33;2.95;;;;;;;7.71;100.00;97127.47;5039115;28;20399;-81
2023/11/20 05:15:46;;;;;;;15.15;2.58;;;;;;;7.75;100.00;97132.00;5038997;28;20395;-81
2023/11/20 05:18:12;;;;;;;25.87;3.50;;;;;;;7.83;100.00;97122.13;5038448;28;20399;-82
2023/11/20 05:20:39;;;;;;;11.13;2.25;;;;;;;7.85;100.00;97127.94;5038472;28;20442;-81
2023/11/20 05:23:08;;;;;;;11.60;2.63;;;;;;;7.84;100.00;97123.72;5038898;28;20414;-81
2023/11/20 05:25:35;;;;;;;14.63;2.40;;;;;;;7.82;100.00;97112.63;5037908;28;20450;-82
2023/11/20 05:28:01;;;;;;;19.98;2.70;;;;;;;7.75;100.00;97120.69;5037441;28;20399;-81
2023/11/20 05:30:27;;;;;;;31.63;4.30;;;;;;;7.68;100.00;97117.41;5037208;28;20868;-81
2023/11/20 05:32:53;;;;;;;19.63;2.75;;;;;;;7.77;100.00;97115.97;5039140;28;20921;-80
2023/11/20 05:35:20;;;;;;;12.95;2.78;;;;;;;7.81;100.00;97121.56;5037321;28;20395;-81
2023/11/20 05:37:46;;;;;;;8.65;1.95;;;;;;;7.77;100.00;97119.41;5036553;28;20395;-82
2023/11/20 05:40:14;;;;;;;12.82;2.40;;;;;;;7.73;100.00;97122.78;5037384;28;20438;-81
2023/11/20 05:42:40;;;;;;;10.27;2.70;;;;;;;7.76;100.00;97138.09;5036510;28;20469;-80
2023/11/20 05:45:07;;;;;;;14.40;2.90;;;;;;;7.75;100.00;97137.28;5037532;28;20417;-80
2023/11/20 05:47:33;;;;;;;12.20;2.60;;;;;;;7.81;100.00;97135.56;5043557;28;20434;-82
2023/11/20 05:49:59;;;;;;;9.75;2.00;;;;;;;7.80;100.00;97135.78;5037468;28;20395;-82
2023/11/20 05:52:26;;;;;;;12.60;2.47;;;;;;;7.77;100.00;97142.31;5036741;28;20764;-83
2023/11/20 05:54:52;;;;;;;13.68;2.38;;;;;;;7.74;100.00;97140.19;5038299;28;20395;-81
2023/11/20 05:57:21;;;;;;;11.88;2.22;;;;;;;7.66;100.00;97135.31;5036876;28;20403;-82
2023/11/20 05:59:47;;;;;;;11.43;2.10;;;;;;;7.60;100.00;97141.50;5035761;28;20426;-82
2023/11/20 06:02:13;;;;;;;6.53;1.60;;;;;;;7.56;100.00;97135.91;5037240;28;20749;-81
2023/11/20 06:04:40;;;;;;;25.05;3.35;;;;;;;7.49;100.00;97140.53;5038956;28;20478;-85
2023/11/20 06:07:07;;;;;;;13.77;2.17;;;;;;;7.56;100.00;97143.81;5038541;28;20406;-84
2023/11/20 06:09:33;;;;;;;13.35;2.70;;;;;;;7.57;100.00;97128.81;5039759;28;20403;-83
2023/11/20 06:11:59;;;;;;;22.58;3.67;;;;;;;7.52;100.00;97140.06;5040491;28;20917;-84
2023/11/20 06:14:27;;;;;;;12.40;2.22;;;;;;;7.62;100.00;97134.16;5036814;28;20427;-85
2023/11/20 06:16:53;;;;;;;6.72;1.80;;;;;;;7.64;100.00;97143.44;5040526;28;20410;-84
2023/11/20 06:19:19;;;;;;;7.68;1.90;;;;;;;7.63;100.00;97152.38;5037434;28;20422;-84
2023/11/20 06:21:46;;;;;;;16.73;2.60;;;;;;;7.55;100.00;97150.13;5038392;28;20986;-82
2023/11/20 06:24:14;;;;;;;6.57;1.83;;;;;;;7.52;100.00;97162.97;5036999;28;20399;-82
2023/11/20 06:26:41;;;;;;;14.55;1.90;;;;;;;7.47;100.00;97160.25;5037865;28;20406;-83
2023/11/20 06:29:07;;;;;;;13.35;2.53;;;;;;;7.47;100.00;97152.34;5039346;28;20461;-83
2023/11/20 06:31:35;;;;;;;5.57;1.80;;;;;;;7.47;100.00;97163.69;5038830;28;20403;-83
2023/11/20 06:34:01;;;;;;;17.27;3.20;;;;;;;7.47;100.00;97165.50;5039636;28;20426;-83
2023/11/20 06:36:27;;;;;;;17.17;2.33;;;;;;;7.50;100.00;97170.31;5039846;28;20413;-81
2023/11/20 06:38:53;;;;;;;9.38;1.88;;;;;;;7.60;100.00;97183.66;5038116;28;20467;-82
2023/11/20 06:41:21;;;;;;;6.37;1.77;;;;;;;7.64;100.00;97180.31;5038380;28;20501;-82
2023/11/20 06:43:47;;;;;;;12.13;2.35;;;;;;;7.68;100.00;97188.53;5039042;28;20402;-83
2023/11/20 06:46:16;;;;;;;10.07;2.08;;;;;;;7.73;100.00;97189.44;5039076;28;20402;-81
2023/11/20 06:48:44;;;;;;;7.93;2.13;;;;;;;7.80;100.00;97185.84;5038594;28;20410;-82
2023/11/20 06:51:12;;;;;;;25.70;3.20;;;;;;;7.77;100.00;97181.84;5037344;28;20414;-81
2023/11/20 06:53:38;;;;;;;17.13;2.97;;;;;;;7.81;100.00;97177.72;5044140;28;20417;-84
2023/11/20 06:56:05;;;;;;;12.60;2.80;;;;;;;7.87;100.00;97173.31;5038676;28;20403;-83
2023/11/20 06:58:34;;;;;;;10.27;2.10;;;;;;;7.85;100.00;97170.13;5038648;28;20414;-83
2023/11/20 07:01:03;;;;;;;14.38;2.33;;;;;;;7.80;100.00;97178.75;5037927;28;20502;-81
2023/11/20 07:03:29;;;;;;;25.25;3.13;;;;;;;7.78;100.00;97178.97;5037536;28;20406;-82
2023/11/20 07:05:56;;;;;;;11.73;2.60;;;;;;;7.90;100.00;97178.09;5037551;28;20435;-81
2023/11/20 07:08:25;;;;;;;18.03;3.30;;;;;;;7.98;100.00;97173.22;5038973;28;20406;-83
2023/11/20 07:10:51;;;;;;;9.75;1.95;;;;;;;8.02;100.00;97179.63;5037054;28;20413;-79
2023/11/20 07:13:18;;;;;;;11.35;1.92;;;;;;;8.05;100.00;97173.06;5035951;28;20429;-80
2023/11/20 07:15:44;;;;;;;7.03;1.92;;;;;;;8.04;100.00;97182.81;5036961;28;20395;-79
2023/11/20 07:18:10;;;;;;;7.35;1.60;;;;;;;8.01;100.00;97179.88;5036584;28;20426;-79
2023/11/20 07:20:36;;;;;;;16.67;2.38;;;;;;;8.04;100.00;97182.03;5036598;28;20406;-79
2023/11/20 07:23:05;;;;;;;12.80;2.58;;;;;;;8.12;100.00;97178.97;5036066;28;20419;-79
2023/11/20 07:25:33;;;;;;;16.10;2.45;;;;;;;8.08;100.00;97170.75;5037523;28;20422;-80
2023/11/20 07:28:02;;;;;;;21.27;3.00;;;;;;;8.14;100.00;97164.53;5039010;28;20445;-80
2023/11/20 07:30:30;;;;;;;23.73;3.10;;;;;;;8.14;100.00;97175.06;5038808;28;20433;-80
2023/11/20 07:32:56;;;;;;;5.90;2.13;;;;;;;8.26;100.00;97171.56;5038387;28;20415;-79
2023/11/20 07:35:22;;;;;;;17.27;3.20;;;;;;;8.21;100.00;97180.19;5039175;28;20459;-79
2023/11/20 07:37:48;;;;;;;7.32;1.95;;;;;;;8.29;100.00;97177.13;5039795;28;20410;-79
2023/11/20 07:40:18;;;;;;;10.40;2.00;;;;;;;8.33;100.00;97177.50;5038750;28;20411;-79
2023/11/20 07:42:44;;;;;;;8.68;2.08;;;;;;;8.39;100.00;97179.16;5038764;28;20854;-79
2023/11/20 07:45:11;;;;;;;11.98;2.10;;;;;;;8.43;100.00;97177.63;5037397;28;20492;-78
2023/11/20 07:47:37;;;;;;;10.80;1.83;;;;;;;8.45;100.00;97170.28;5038336;28;20395;-80
2023/11/20 07:50:04;;;;;;;20.25;3.60;;;;;;;8.43;100.00;97178.44;5037444;28;20427;-79
2023/11/20 07:52:31;;;;;;;12.00;2.43;;;;;;;8.54;100.00;97169.63;5037945;28;20407;-79
2023/11/20 07:54:57;;;;;;;20.42;4.00;;;;;;;8.47;100.00;97169.00;5039467;28;20438;-80
2023/11/20 07:57:25;;;;;;;9.23;2.30;;;;;;;8.64;100.00;97170.81;5040853;28;20867;-79
2023/11/20 07:59:52;;;;;;;5.73;1.80;;;;;;;8.68;100.00;97175.34;5038651;28;20415;-80
2023/11/20 08:02:19;;;;;;;15.40;2.50;;;;;;;8.71;100.00;97184.63;5038412;28;20411;-79
2023/11/20 08:04:45;;;;;;;11.98;2.40;;;;;;;8.77;100.00;97183.66;5036807;28;20398;-82
2023/11/20 08:07:13;;;;;;;10.45;2.10;;;;;;;8.76;100.00;97182.06;5036418;28;20391;-79
2023/11/20 08:09:39;;;;;;;9.70;2.00;;;;;;;8.80;100.00;97181.31;5043527;28;20437;-79
2023/11/20 08:12:06;;;;;;;6.53;1.70;;;;;;;8.80;100.00;97183.16;5038240;28;20434;-79
2023/11/20 08:14:34;;;;;;;8.18;1.95;;;;;;;8.84;100.00;97190.34;5036382;28;20399;-79
2023/11/20 08:17:01;;;;;;;8.48;1.90;;;;;;;8.89;100.00;97179.84;5037060;28;20387;-79
2023/11/20 08:19:28;;;;;;;16.15;2.38;;;;;;;8.89;100.00;97181.69;5036212;28;20429;-80
2023/11/20 08:21:54;;;;;;;16.88;2.33;;;;;;;8.87;100.00;97189.06;5035993;28;20422;-79
2023/11/20 08:24:21;;;;;;;9.30;2.33;;;;;;;8.89;100.00;97187.75;5039303;28;20407;-79
2023/11/20 08:26:47;;;;;;;14.20;3.05;;;;;;;8.90;100.00;97180.66;5040377;28;20395;-79
2023/11/20 08:29:16;;;;;;;5.82;2.03;;;;;;;8.95;100.00;97182.56;5040355;28;20751;-79
2023/11/20 08:31:43;;;;;;;8.95;1.70;;;;;;;8.96;100.00;97179.66;5039725;28;20609;-79
2023/11/20 08:34:09;;;;;;;15.45;2.60;;;;;;;8.85;100.00;97181.41;5039688;28;20453;-79
2023/11/20 08:36:36;;;;;;;5.05;1.67;;;;;;;8.94;100.00;97179.13;5038961;28;20486;-79
2023/11/20 08:39:05;;;;;;;5.97;1.87;;;;;;;8.96;100.00;97179.66;5039143;28;20775;-79
2023/11/20 08:41:31;;;;;;;14.13;2.22;;;;;;;8.81;100.00;97187.38;5037838;28;20900;-79
2023/11/20 08:43:59;;;;;;;7.13;1.95;;;;;;;8.91;100.00;97187.53;5038162;28;20399;-79
2023/11/20 08:46:25;;;;;;;17.50;2.63;;;;;;;8.91;100.00;97188.34;5039691;28;20539;-79
2023/11/20 08:48:53;;;;;;;9.77;2.20;;;;;;;8.91;100.00;97187.53;5043413;28;20417;-78
2023/11/20 08:51:19;;;;;;;10.73;2.10;;;;;;;8.93;100.00;97180.16;5040257;28;20399;-78
2023/11/20 08:53:45;;;;;;;13.57;2.70;;;;;;;8.85;100.00;97180.59;5039979;28;20399;-79
2023/11/20 08:56:11;;;;;;;16.70;3.05;;;;;;;8.81;100.00;97185.56;5040216;28;20395;-80
2023/11/20 08:58:37;;;;;;;17.95;2.83;;;;;;;8.79;100.00;97168.38;5038946;28;20451;-80
2023/11/20 09:01:04;;;;;;;13.88;3.05;;;;;;;8.85;100.00;97173.47;5040638;28;20406;-79
2023/11/20 09:03:31;;;;;;;8.40;2.10;;;;;;;8.92;100.00;97173.28;5039507;28;20798;-80
2023/11/20 09:05:58;;;;;;;9.57;2.30;;;;;;;8.94;100.00;97173.84;5040349;28;20391;-83
2023/11/20 09:08:24;;;;;;;12.60;2.20;;;;;;;8.92;100.00;97174.09;5040484;28;20447;-80
2023/11/20 09:10:50;;;;;;;3.42;1.58;;;;;;;8.98;100.00;97177.59;5040597;28;20399;-79
2023/11/20 09:13:17;;;;;;;8.00;1.83;;;;;;;9.04;100.00;97165.22;5035957;28;21083;-80
2023/11/20 09:15:43;;;;;;;11.88;2.10;;;;;;;9.08;100.00;97176.91;5038264;28;20426;-80
2023/11/20 09:18:09;;;;;;;9.90;2.13;;;;;;;9.17;100.00;97170.94;5039213;28;20391;-79
2023/11/20 09:20:36;;;;;;;19.27;3.07;;;;;;;9.18;100.00;97174.38;5039857;28;20395;-79
2023/11/20 09:23:03;;;;;;;8.85;2.22;;;;;;;9.26;100.00;97168.66;5045586;28;20438;-79
2023/11/20 09:25:30;;;;;;;7.07;1.73;;;;;;;9.54;100.00;97178.22;5043816;28;20783;-79
2023/11/20 09:27:57;;;;;;;8.93;2.00;;;;;;;9.65;100.00;97174.63;5043788;28;20395;-79
2023/11/20 09:30:24;;;;;;;6.60;2.10;;;;;;;9.69;100.00;97171.25;5044341;28;20399;-79
2023/11/20 09:32:50;;;;;;;8.30;2.00;;;;;;;10.09;100.00;97170.78;5044206;28;20421;-80
2023/11/20 09:35:20;;;;;;;5.28;1.80;;;;;;;10.97;100.00;97179.03;5042302;28;20395;-79
2023/11/20 09:37:47;;;;;;;9.00;2.05;;;;;;;11.82;100.00;97168.94;5041009;28;20399;-78
2023/11/20 09:40:15;;;;;;;8.15;1.90;;;;;;;12.78;100.00;97172.31;5043480;28;20407;-79
2023/11/20 09:42:43;;;;;;;14.70;3.30;;;;;;;13.25;100.00;97157.81;5041236;28;20441;-80
2023/11/20 09:45:24;;;;;;;12.02;2.83;;;;;;;13.30;100.00;97122.47;5041047;28;20949;-79
2023/11/20 09:47:52;;;;;;;7.47;1.90;;;;;;;12.82;100.00;97114.13;5038684;28;20394;-80
2023/11/20 09:50:21;;;;;;;10.05;2.22;;;;;;;12.37;100.00;97104.44;5038085;28;20398;-79
2023/11/20 09:52:50;;;;;;;5.13;1.80;;;;;;;12.24;100.00;97105.00;5038736;28;20438;-80
2023/11/20 09:55:19;;;;;;;5.43;1.67;;;;;;;12.33;100.00;97114.78;5038945;28;20402;-79
2023/11/20 09:57:45;;;;;;;3.03;1.40;;;;;;;12.83;100.00;97122.91;5038064;28;20482;-80
2023/11/20 10:00:15;;;;;;;9.27;2.08;;;;;;;13.48;100.00;97127.13;5036278;28;20434;-79
2023/11/20 10:02:43;;;;;;;17.25;2.70;;;;;;;13.57;100.00;97104.19;5038748;28;20419;-80
2023/11/20 10:05:11;;;;;;;7.85;1.80;;;;;;;14.13;100.00;97115.19;5039185;28;20438;-80
2023/11/20 10:07:38;;;;;;;13.73;2.13;;;;;;;13.97;100.00;97099.66;5038218;28;20451;-79
2023/11/20 10:10:05;;;;;;;8.13;1.98;;;;;;;13.25;100.00;97103.84;5038551;28;20671;-80
2023/11/20 10:12:35;;;;;;;12.20;2.30;;;;;;;12.53;100.00;97110.50;5037455;28;20418;-80
2023/11/20 10:15:01;;;;;;;11.18;2.38;;;;;;;12.02;100.00;97100.00;5038046;28;20756;-80
2023/11/20 10:17:28;;;;;;;5.35;1.90;;;;;;;11.65;100.00;97101.00;5038126;28;20406;-81
2023/11/20 10:19:54;;;;;;;6.30;1.75;;;;;;;11.32;100.00;97113.97;5037726;28;20468;-79
2023/11/20 10:22:26;;;;;;;9.30;2.10;;;;;;;11.05;100.00;97122.13;5038048;28;20415;-79
2023/11/20 10:24:54;;;;;;;7.03;2.00;;;;;;;10.77;100.00;97113.53;5030026;28;20486;-79
2023/11/20 10:27:22;;;;;;;12.65;2.20;;;;;;;10.56;100.00;97117.13;5037436;28;20396;-79
2023/11/20 10:29:50;;;;;;;10.75;2.00;;;;;;;10.31;100.00;97104.56;5036388;28;20440;-79
2023/11/20 10:32:16;;;;;;;11.00;2.45;;;;;;;10.05;100.00;97105.44;5043607;28;20411;-80
2023/11/20 10:34:42;;;;;;;6.53;2.20;;;;;;;9.88;100.00;97110.84;5037530;28;20402;-80
2023/11/20 10:37:09;;;;;;;8.65;2.15;;;;;;;9.76;100.00;97112.88;5039348;28;20398;-79
2023/11/20 10:39:35;;;;;;;7.93;2.05;;;;;;;9.65;100.00;97119.13;5035463;28;20418;-79
2023/11/20 10:42:02;;;;;;;8.52;1.90;;;;;;;9.52;100.00;97107.13;5036861;28;20521;-79
2023/11/20 10:44:29;;;;;;;10.70;2.53;;;;;;;9.42;100.00;97103.56;5037109;28;20746;-79
2023/11/20 10:46:59;;;;;;;9.38;2.00;;;;;;;9.43;100.00;97103.34;5035692;28;20395;-78
2023/11/20 10:49:31;;;;;;;7.53;1.70;;;;;;;9.40;100.00;97110.97;5036579;28;20406;-79
2023/11/20 10:52:03;;;;;;;6.30;1.90;;;;;;;9.32;100.00;97114.88;5034733;28;20395;-80
2023/11/20 10:54:38;;;;;;;13.57;2.35;;;;;;;9.20;100.00;97112.34;5035918;28;20480;-82
2023/11/20 10:57:06;;;;;;;12.52;2.47;;;;;;;9.02;100.00;97098.69;5035627;28;20407;-81
2023/11/20 10:59:39;;;;;;;9.57;2.47;;;;;;;8.79;100.00;97087.38;5034004;28;20864;-82
2023/11/20 11:02:18;;;;;;;5.90;1.98;;;;;;;9.01;100.00;97079.44;5036904;28;20429;-81
2023/11/20 11:04:45;;;;;;;7.22;1.80;;;;;;;9.85;100.00;97092.84;5036722;28;20401;-81
2023/11/20 11:07:16;;;;;;;2.15;1.30;;;;;;;10.78;100.00;97096.59;5034568;28;20405;-81
2023/11/20 11:09:44;;;;;;;1.73;1.00;;;;;;;11.79;100.00;97093.38;5033164;28;20871;-81
2023/11/20 11:12:11;;;;;;;2.60;1.10;;;;;;;12.58;100.00;97098.00;5033900;28;20820;-81
2023/11/20 11:14:38;;;;;;;1.08;0.70;;;;;;;13.23;100.00;97090.06;5034494;28;20395;-82
2023/11/20 11:17:09;;;;;;;0.93;0.80;;;;;;;13.34;100.00;97057.81;5039374;28;20441;-82
2023/11/20 11:19:42;;;;;;;4.47;1.60;;;;;;;13.07;100.00;97046.81;5035965;28;20771;-81
2023/11/20 11:22:13;;;;;;;6.63;1.90;;;;;;;12.61;100.00;97046.25;5037248;28;20422;-81
2023/11/20 11:24:44;;;;;;;3.70;1.70;;;;;;;12.12;100.00;97048.75;5033545;28;20479;-82
2023/11/20 11:27:17;;;;;;;3.97;1.40;;;;;;;11.88;100.00;97045.88;5040098;28;20422;-82
2023/11/20 11:29:49;;;;;;;3.43;1.60;;;;;;;11.94;100.00;97055.44;5040110;28;20431;-82